createdAt,value
2017-03-23T11:20:05.032Z,23.70
2017-03-23T11:21:02.691Z,23.00
2017-03-23T11:22:00.919Z,22.50
2017-03-23T11:22:58.598Z,21.90
2017-03-23T11:23:56.441Z,22.10
2017-03-23T11:24:54.291Z,22.10
2017-03-23T11:25:52.015Z,22.30
2017-03-23T11:26:49.683Z,22.70
2017-03-23T11:27:48.047Z,23.00
2017-03-23T11:28:45.663Z,23.50
2017-03-23T11:29:43.274Z,24.00
2017-03-23T11:30:40.976Z,24.10
2017-03-23T11:31:38.603Z,24.20
2017-03-23T11:32:36.738Z,23.80
2017-03-23T11:33:35.342Z,23.80
2017-03-23T11:34:32.976Z,23.90
2017-03-23T11:35:30.946Z,24.30
2017-03-23T11:36:29.567Z,24.80
2017-03-23T11:37:27.242Z,25.50
2017-03-23T11:38:24.870Z,26.00
2017-03-23T11:39:22.527Z,26.00
2017-03-23T11:40:20.646Z,25.80
2017-03-23T11:41:18.336Z,25.80
2017-03-23T11:42:16.083Z,25.60
2017-03-23T11:43:13.950Z,25.10
2017-03-23T11:44:11.802Z,25.10
2017-03-23T11:45:09.614Z,25.40
2017-03-23T11:46:07.222Z,25.40
2017-03-23T11:47:04.934Z,25.40
2017-03-23T11:48:02.570Z,25.60
2017-03-23T11:49:01.033Z,25.90
2017-03-23T11:49:58.628Z,26.20
2017-03-23T11:50:56.893Z,26.30
2017-03-23T11:51:54.510Z,25.90
2017-03-23T11:52:52.122Z,25.30
2017-03-23T11:53:49.760Z,24.80
2017-03-23T11:54:47.467Z,24.30
2017-03-23T11:55:45.130Z,24.30
2017-03-23T11:56:42.819Z,24.40
2017-03-23T11:57:40.613Z,24.30
2017-03-23T11:58:38.230Z,24.40
2017-03-23T11:59:35.881Z,24.90
2017-03-23T12:00:34.050Z,25.40
2017-03-23T12:01:31.669Z,26.00
2017-03-23T12:02:29.351Z,26.50
2017-03-23T12:03:27.103Z,26.80
2017-03-23T12:04:24.718Z,26.30
2017-03-23T12:05:23.639Z,26.30
2017-03-23T12:06:21.488Z,26.60
2017-03-23T12:07:20.083Z,26.60
2017-03-23T12:08:17.923Z,26.70
2017-03-23T12:09:15.699Z,26.90
2017-03-23T12:10:13.886Z,27.20
2017-03-23T12:11:11.508Z,27.70
2017-03-23T12:12:09.124Z,28.10
2017-03-23T12:13:06.859Z,28.40
2017-03-23T12:14:05.776Z,28.60
2017-03-23T12:15:04.086Z,28.70
2017-03-23T12:16:01.787Z,28.30
2017-03-23T12:16:59.975Z,28.00
2017-03-23T12:17:57.631Z,27.20
2017-03-23T12:18:55.273Z,26.30
2017-03-23T12:19:52.988Z,25.50
2017-03-23T12:20:50.728Z,25.20
2017-03-23T12:21:48.949Z,25.20
2017-03-23T12:22:46.611Z,25.20
2017-03-23T12:23:44.492Z,25.30
2017-03-23T12:24:42.166Z,25.30
2017-03-23T12:25:39.987Z,25.40
2017-03-23T12:26:37.746Z,25.40
2017-03-23T12:27:35.423Z,25.60
2017-03-23T12:28:33.054Z,25.60
2017-03-23T12:29:30.706Z,25.60
2017-03-23T12:30:28.910Z,25.40
2017-03-23T12:31:27.335Z,25.40
2017-03-23T12:32:25.999Z,25.20
2017-03-23T12:33:23.685Z,25.30
2017-03-23T12:34:21.870Z,25.30
2017-03-23T12:35:19.574Z,25.50
2017-03-23T12:36:17.202Z,26.00
2017-03-23T12:37:14.876Z,26.50
2017-03-23T12:38:12.487Z,27.10
2017-03-23T12:39:10.138Z,27.40
2017-03-23T12:40:08.079Z,27.40
2017-03-23T12:41:05.646Z,27.30
2017-03-23T12:42:03.299Z,27.60
2017-03-23T12:43:00.944Z,28.00
2017-03-23T12:43:58.558Z,28.30
2017-03-23T12:44:56.771Z,28.50
2017-03-23T12:45:54.511Z,28.20
2017-03-23T12:46:52.233Z,28.20
2017-03-23T12:47:49.875Z,28.30
2017-03-23T12:48:47.516Z,28.30
2017-03-23T12:49:45.218Z,28.30
2017-03-23T12:50:44.257Z,28.60
2017-03-23T12:51:41.867Z,28.70
2017-03-23T12:52:39.474Z,28.70
2017-03-23T12:53:37.150Z,28.90
2017-03-23T12:54:35.624Z,29.30
2017-03-23T12:55:33.829Z,29.40
2017-03-23T12:56:31.527Z,29.60
2017-03-23T12:57:29.202Z,29.60
2017-03-23T12:58:26.811Z,29.80
2017-03-23T12:59:24.488Z,30.00
2017-03-23T13:00:22.789Z,30.30
2017-03-23T13:01:20.419Z,30.70
2017-03-23T13:02:18.063Z,31.00
2017-03-23T13:03:15.714Z,31.20
2017-03-23T13:04:13.384Z,31.10
2017-03-23T13:05:11.038Z,30.90
2017-03-23T13:06:08.681Z,30.40
2017-03-23T13:07:06.292Z,30.10
2017-03-23T13:08:03.971Z,30.00
2017-03-23T13:09:02.963Z,30.10
2017-03-23T13:10:00.596Z,30.30
2017-03-23T13:10:58.349Z,30.40
2017-03-23T13:11:56.005Z,30.40
2017-03-23T13:12:53.699Z,30.80
2017-03-23T13:13:51.378Z,30.70
2017-03-23T13:14:49.039Z,30.60
2017-03-23T13:15:46.728Z,30.70
2017-03-23T13:16:44.381Z,30.90
2017-03-23T13:17:42.038Z,31.40
2017-03-23T13:18:39.712Z,31.70
2017-03-23T13:19:37.385Z,31.90
2017-03-23T13:20:35.414Z,32.10
2017-03-23T13:21:33.098Z,32.20
2017-03-23T13:22:30.743Z,32.30
2017-03-23T13:23:28.408Z,32.50
2017-03-23T13:24:26.078Z,31.90
2017-03-23T13:25:23.825Z,31.40
2017-03-23T13:26:21.511Z,31.30
2017-03-23T13:27:19.295Z,31.40
2017-03-23T13:28:17.130Z,31.50
2017-03-23T13:29:14.772Z,31.60
2017-03-23T13:30:13.007Z,31.90
2017-03-23T13:31:10.664Z,32.00
2017-03-23T13:32:08.321Z,32.30
2017-03-23T13:33:06.202Z,32.50
2017-03-23T13:34:04.004Z,32.40
2017-03-23T13:35:02.080Z,32.50
2017-03-23T13:35:59.857Z,32.40
2017-03-23T13:36:57.546Z,32.40
2017-03-23T13:37:55.429Z,31.80
2017-03-23T13:38:53.088Z,31.10
2017-03-23T13:39:50.914Z,31.30
2017-03-23T13:40:48.652Z,31.90
2017-03-23T13:41:47.114Z,32.20
2017-03-23T13:42:45.086Z,32.50
2017-03-23T13:43:42.966Z,32.60
2017-03-23T13:44:40.716Z,32.80
2017-03-23T13:45:38.383Z,33.00
2017-03-23T13:46:36.211Z,33.20
2017-03-23T13:47:33.831Z,33.40
2017-03-23T13:48:31.588Z,33.60
2017-03-23T13:50:09.426Z,33.50
2017-03-23T13:51:07.386Z,33.10
2017-03-23T13:52:05.223Z,31.70
2017-03-23T13:53:02.958Z,31.50
2017-03-23T13:54:00.830Z,31.30
2017-03-23T13:54:59.097Z,30.70
2017-03-23T13:55:58.604Z,30.30
2017-03-23T13:56:56.966Z,30.40
2017-03-23T13:57:55.164Z,30.60
2017-03-23T13:58:52.854Z,30.50
2017-03-23T13:59:52.310Z,30.40
2017-03-23T14:00:50.164Z,30.40
2017-03-23T14:01:47.791Z,30.40
2017-03-23T14:02:45.460Z,30.30
2017-03-23T14:03:43.298Z,30.50
2017-03-23T14:04:40.930Z,30.40
2017-03-23T14:05:38.759Z,30.20
2017-03-23T14:06:37.404Z,30.40
2017-03-23T14:07:35.662Z,30.50
2017-03-23T14:08:33.374Z,31.00
2017-03-23T14:09:31.284Z,31.30
2017-03-23T14:10:29.443Z,31.20
2017-03-23T14:11:27.152Z,31.20
2017-03-23T14:12:25.053Z,31.30
2017-03-23T14:13:23.433Z,31.50
2017-03-23T14:14:21.279Z,31.60
2017-03-23T14:15:19.616Z,31.90
2017-03-23T14:16:17.314Z,32.30
2017-03-23T14:17:15.019Z,32.60
2017-03-23T14:18:12.657Z,32.80
2017-03-23T14:19:11.086Z,32.70
2017-03-23T14:20:09.210Z,31.60
2017-03-23T14:21:07.869Z,31.20
2017-03-23T14:22:05.719Z,30.70
2017-03-23T14:23:03.426Z,30.70
2017-03-23T14:24:01.269Z,30.60
2017-03-23T14:24:59.077Z,30.40
2017-03-23T14:25:57.652Z,30.30
2017-03-23T14:26:55.402Z,30.30
2017-03-23T14:27:53.064Z,30.10
2017-03-23T14:28:50.736Z,29.90
2017-03-23T14:29:49.194Z,29.60
2017-03-23T14:30:47.591Z,29.30
2017-03-23T14:31:46.287Z,29.00
2017-03-23T14:32:44.783Z,28.90
2017-03-23T14:36:44.369Z,29.20
2017-03-23T14:47:30.185Z,29.30
2017-03-23T14:48:27.890Z,27.30
2017-03-23T14:49:25.521Z,27.40
2017-03-23T14:50:23.683Z,27.50
2017-03-23T14:51:21.549Z,27.70
2017-03-23T14:52:19.329Z,28.10
2017-03-23T14:53:18.004Z,28.40
2017-03-23T14:54:16.714Z,28.90
2017-03-23T14:55:14.628Z,29.20
2017-03-23T14:56:12.346Z,29.40
2017-03-23T14:57:10.074Z,29.70
2017-03-23T14:58:07.711Z,30.10
2017-03-23T14:59:05.362Z,30.10
2017-03-23T15:00:03.347Z,29.90
2017-03-23T15:01:01.003Z,29.50
2017-03-23T15:01:58.692Z,29.30
2017-03-23T15:02:56.398Z,29.20
2017-03-23T15:03:54.005Z,29.20
2017-03-23T15:04:51.623Z,29.20
2017-03-23T15:05:50.169Z,28.90
2017-03-23T15:06:47.857Z,28.70
2017-03-23T15:07:45.466Z,28.60
2017-03-23T15:08:43.082Z,28.70
2017-03-23T15:09:41.723Z,29.00
2017-03-23T15:10:39.426Z,29.20
2017-03-23T15:11:37.177Z,29.50
2017-03-23T15:12:35.468Z,29.90
2017-03-23T15:13:33.142Z,30.00
2017-03-23T15:14:30.834Z,30.30
2017-03-23T15:15:29.040Z,30.20
2017-03-23T15:16:26.838Z,30.00
2017-03-23T15:17:24.504Z,30.10
2017-03-23T15:18:22.166Z,30.20
2017-03-23T15:19:19.834Z,30.10
2017-03-23T15:20:17.556Z,29.70
2017-03-23T15:21:15.589Z,28.50
2017-03-23T15:22:13.266Z,27.60
2017-03-23T15:23:10.882Z,27.10
2017-03-23T15:24:08.539Z,26.90
2017-03-23T15:25:06.253Z,26.70
2017-03-23T15:26:03.903Z,26.60
2017-03-23T15:27:01.887Z,26.50
2017-03-23T15:27:59.592Z,26.20
2017-03-23T15:28:57.346Z,26.00
2017-03-23T15:29:55.075Z,25.90
2017-03-23T15:30:52.824Z,25.90
2017-03-23T15:31:52.043Z,25.80
2017-03-23T15:32:49.730Z,25.80
2017-03-23T15:33:47.399Z,25.80
2017-03-23T15:34:45.022Z,25.80
2017-03-23T15:35:42.700Z,25.60
2017-03-23T15:36:40.419Z,25.50
2017-03-23T15:37:38.572Z,25.20
2017-03-23T15:38:36.310Z,24.80
2017-03-23T15:39:35.039Z,24.50
2017-03-23T15:40:33.212Z,24.40
2017-03-23T15:41:30.939Z,24.30
2017-03-23T15:42:30.003Z,24.10
2017-03-23T15:43:27.715Z,23.80
2017-03-23T15:44:25.351Z,23.70
2017-03-23T15:45:23.872Z,23.80
2017-03-23T15:46:21.629Z,23.60
2017-03-23T15:47:20.950Z,23.60
2017-03-23T15:48:18.667Z,23.40
2017-03-23T15:49:16.456Z,23.40
2017-03-23T15:50:14.524Z,23.50
2017-03-23T15:51:12.162Z,23.50
2017-03-23T15:52:10.004Z,23.40
2017-03-23T15:53:07.835Z,23.00
2017-03-23T15:54:06.561Z,22.70
2017-03-23T15:55:04.644Z,22.60
2017-03-23T15:56:02.306Z,22.70
2017-03-23T15:56:59.941Z,22.80
2017-03-23T15:57:57.630Z,22.80
2017-03-23T15:58:55.269Z,22.50
2017-03-23T15:59:52.965Z,22.00
2017-03-23T16:00:50.962Z,21.70
2017-03-23T16:01:49.735Z,21.30
2017-03-23T16:02:47.402Z,21.10
2017-03-23T16:03:45.243Z,20.60
2017-03-23T16:04:42.914Z,20.10
2017-03-23T16:05:40.689Z,19.80
2017-03-23T16:06:38.916Z,19.50
2017-03-23T16:07:36.552Z,19.20
2017-03-23T16:08:34.191Z,19.00
2017-03-23T16:09:32.543Z,19.00
2017-03-23T16:10:30.274Z,18.90
2017-03-23T16:11:27.866Z,18.80
2017-03-23T16:12:25.682Z,18.40
2017-03-23T16:13:23.349Z,18.00
2017-03-23T16:14:21.819Z,17.60
2017-03-23T16:15:20.134Z,17.20
2017-03-23T16:16:17.930Z,16.90
2017-03-23T16:17:15.812Z,16.60
2017-03-23T16:18:13.571Z,16.30
2017-03-23T16:19:12.222Z,16.10
2017-03-23T16:20:10.023Z,16.00
2017-03-23T16:21:07.893Z,16.00
2017-03-23T16:22:06.529Z,16.10
2017-03-23T16:23:04.345Z,16.10
2017-03-23T16:24:02.624Z,16.00
2017-03-23T16:25:00.559Z,16.00
2017-03-23T16:25:58.629Z,16.00
2017-03-23T16:26:56.319Z,15.90
2017-03-23T16:27:54.499Z,15.80
2017-03-23T16:28:52.147Z,15.70
2017-03-23T16:29:50.333Z,15.60
2017-03-23T16:30:48.086Z,15.60
2017-03-23T16:31:45.899Z,15.60
2017-03-23T16:32:43.651Z,15.60
2017-03-23T16:33:41.476Z,15.60
2017-03-23T16:34:39.119Z,15.50
2017-03-23T16:35:37.407Z,15.60
2017-03-23T16:36:35.212Z,15.60
2017-03-23T16:37:33.026Z,15.50
2017-03-23T16:38:30.679Z,15.40
2017-03-23T16:39:28.470Z,15.30
2017-03-23T16:40:26.354Z,15.30
2017-03-23T16:41:24.050Z,15.20
2017-03-23T16:42:21.794Z,15.30
2017-03-23T16:43:19.702Z,15.20
2017-03-23T16:44:17.429Z,15.10
2017-03-23T16:45:16.236Z,14.90
2017-03-23T16:46:14.011Z,14.80
2017-03-23T16:47:11.691Z,14.70
2017-03-23T16:48:09.499Z,14.60
2017-03-23T16:49:07.238Z,14.50
2017-03-23T16:50:05.635Z,14.40
2017-03-23T16:51:04.806Z,14.40
2017-03-23T16:52:02.499Z,14.30
2017-03-23T16:53:00.180Z,14.30
2017-03-23T16:53:58.744Z,14.30
2017-03-23T16:54:57.460Z,14.30
2017-03-23T16:55:55.272Z,14.30
2017-03-23T16:56:53.536Z,14.20
2017-03-23T16:57:51.380Z,14.10
2017-03-23T16:58:50.048Z,14.10
2017-03-23T16:59:47.851Z,14.00
2017-03-23T17:00:46.049Z,14.00
2017-03-23T17:01:43.977Z,13.90
2017-03-23T17:02:41.792Z,13.90
2017-03-23T17:03:39.557Z,13.90
2017-03-23T17:04:37.312Z,13.90
2017-03-23T17:05:35.579Z,13.80
2017-03-23T17:06:35.975Z,13.80
2017-03-23T17:07:33.592Z,13.80
2017-03-23T17:08:32.134Z,13.80
2017-03-23T17:09:29.968Z,13.80
2017-03-23T17:10:27.727Z,13.80
2017-03-23T17:11:25.900Z,13.80
2017-03-23T17:12:24.655Z,13.80
2017-03-23T17:13:22.771Z,13.80
2017-03-23T17:14:20.458Z,13.80
2017-03-23T17:15:18.330Z,13.80
2017-03-23T17:16:16.177Z,13.70
2017-03-23T17:17:14.810Z,13.70
2017-03-23T17:18:12.452Z,13.60
2017-03-23T17:19:10.271Z,13.60
2017-03-23T17:20:08.030Z,13.60
2017-03-23T17:21:05.699Z,13.60
2017-03-23T17:22:03.717Z,13.60
2017-03-23T17:23:02.324Z,13.70
2017-03-23T17:24:01.747Z,13.70
2017-03-23T17:24:59.438Z,13.60
2017-03-23T17:25:57.243Z,13.60
2017-03-23T17:26:55.174Z,13.60
2017-03-23T17:27:53.094Z,13.50
2017-03-23T17:28:50.701Z,13.50
2017-03-23T17:29:48.704Z,13.40
2017-03-23T17:30:46.579Z,13.40
2017-03-23T17:31:44.210Z,13.40
2017-03-23T17:32:41.876Z,13.40
2017-03-23T17:33:39.629Z,13.40
2017-03-23T17:34:37.269Z,13.30
2017-03-23T17:35:35.110Z,13.30
2017-03-23T17:36:32.749Z,13.20
2017-03-23T17:37:30.419Z,13.20
2017-03-23T17:38:28.199Z,13.10
2017-03-23T17:39:27.463Z,13.10
2017-03-23T17:40:25.642Z,13.00
2017-03-23T17:41:23.375Z,13.00
2017-03-23T17:42:22.612Z,12.90
2017-03-23T17:43:20.285Z,12.90
2017-03-23T17:44:18.028Z,12.80
2017-03-23T17:45:15.867Z,12.80
2017-03-23T17:46:13.815Z,12.80
2017-03-23T17:47:11.526Z,12.80
2017-03-23T17:48:09.192Z,12.70
2017-03-23T17:49:07.030Z,12.80
2017-03-23T17:50:05.313Z,12.80
2017-03-23T17:51:03.231Z,12.70
2017-03-23T17:52:01.015Z,12.50
2017-03-23T17:52:59.371Z,12.40
2017-03-23T17:53:57.480Z,12.40
2017-03-23T17:54:55.681Z,12.30
2017-03-23T17:55:53.929Z,12.40
2017-03-23T17:56:51.623Z,12.40
2017-03-23T17:57:49.293Z,12.40
2017-03-23T17:58:46.952Z,12.40
2017-03-23T17:59:44.714Z,12.40
2017-03-23T18:00:43.536Z,12.50
2017-03-23T18:01:41.191Z,12.40
2017-03-23T18:02:38.838Z,12.40
2017-03-23T18:03:36.963Z,12.30
2017-03-23T18:04:34.641Z,12.20
2017-03-23T18:05:32.751Z,12.20
2017-03-23T18:06:31.073Z,12.20
2017-03-23T18:07:28.773Z,12.20
2017-03-23T18:08:26.463Z,12.20
2017-03-23T18:09:24.084Z,12.20
2017-03-23T18:10:21.770Z,12.30
2017-03-23T18:11:19.793Z,12.20
2017-03-23T18:12:17.496Z,12.30
2017-03-23T18:13:15.270Z,12.20
2017-03-23T18:14:13.535Z,12.20
2017-03-23T18:15:11.337Z,12.20
2017-03-23T18:16:09.001Z,12.10
2017-03-23T18:17:06.713Z,12.10
2017-03-23T18:18:04.337Z,12.10
2017-03-23T18:19:02.922Z,12.10
2017-03-23T18:20:00.589Z,12.00
2017-03-23T18:20:58.366Z,12.00
2017-03-23T18:21:56.036Z,12.00
2017-03-23T18:22:53.721Z,12.00
2017-03-23T18:23:51.954Z,12.00
2017-03-23T18:24:49.611Z,12.00
2017-03-23T18:25:50.435Z,11.90
2017-03-23T18:26:48.076Z,11.80
2017-03-23T18:27:46.441Z,11.80
2017-03-23T18:28:44.825Z,11.80
2017-03-23T18:29:43.491Z,11.70
2017-03-23T18:30:41.207Z,11.70
2017-03-23T18:31:39.479Z,11.60
2017-03-23T18:32:37.217Z,11.60
2017-03-23T18:33:34.919Z,11.60
2017-03-23T18:34:33.745Z,11.60
2017-03-23T18:35:32.311Z,11.60
2017-03-23T18:36:30.815Z,11.60
2017-03-23T18:37:28.519Z,11.60
2017-03-23T18:38:26.207Z,11.50
2017-03-23T18:39:24.255Z,11.50
2017-03-23T18:40:22.308Z,11.40
2017-03-23T18:41:20.004Z,11.40
2017-03-23T18:42:18.523Z,11.30
2017-03-23T18:43:16.250Z,11.40
2017-03-23T18:44:13.986Z,11.30
2017-03-23T18:45:12.134Z,11.20
2017-03-23T18:46:09.831Z,11.20
2017-03-23T18:47:08.510Z,11.20
2017-03-23T18:48:07.225Z,11.30
2017-03-23T18:49:05.691Z,11.30
2017-03-23T18:50:04.615Z,11.30
2017-03-23T18:51:02.319Z,11.40
2017-03-23T18:52:00.886Z,11.40
2017-03-23T18:52:59.123Z,11.40
2017-03-23T18:53:56.791Z,11.40
2017-03-23T18:54:54.525Z,11.30
2017-03-23T18:55:53.258Z,11.20
2017-03-23T18:56:51.060Z,11.10
2017-03-23T18:57:48.867Z,11.10
2017-03-23T18:58:47.437Z,11.10
2017-03-23T18:59:45.163Z,11.00
2017-03-23T19:00:43.156Z,11.00
2017-03-23T19:01:40.897Z,11.00
2017-03-23T19:02:39.243Z,11.00
2017-03-23T19:03:38.593Z,11.00
2017-03-23T19:04:36.303Z,11.00
2017-03-23T19:05:34.093Z,11.00
2017-03-23T19:06:31.800Z,11.00
2017-03-23T19:07:30.182Z,11.00
2017-03-23T19:08:28.032Z,10.90
2017-03-23T19:09:26.751Z,10.90
2017-03-23T19:10:25.472Z,10.90
2017-03-23T19:11:24.032Z,11.00
2017-03-23T19:12:21.762Z,11.00
2017-03-23T19:13:19.541Z,11.00
2017-03-23T19:14:18.060Z,11.00
2017-03-23T19:15:16.221Z,11.10
2017-03-23T19:16:14.148Z,11.10
2017-03-23T19:17:14.109Z,11.10
2017-03-23T19:18:12.070Z,11.00
2017-03-23T19:19:09.760Z,11.00
2017-03-23T19:20:07.557Z,11.00
2017-03-23T19:21:06.214Z,11.00
2017-03-23T19:22:04.582Z,11.00
2017-03-23T19:23:02.987Z,11.00
2017-03-23T19:24:02.708Z,11.00
2017-03-23T19:25:00.430Z,11.00
2017-03-23T19:25:58.984Z,11.00
2017-03-23T19:26:57.052Z,11.00
2017-03-23T19:27:54.749Z,11.00
2017-03-23T19:28:52.580Z,11.00
2017-03-23T19:29:50.248Z,11.10
2017-03-23T19:30:48.410Z,11.10
2017-03-23T19:31:46.499Z,11.20
2017-03-23T19:32:44.447Z,11.20
2017-03-23T19:33:42.168Z,11.10
2017-03-23T19:34:40.547Z,11.10
2017-03-23T19:35:38.682Z,11.10
2017-03-23T19:36:36.383Z,11.10
2017-03-23T19:37:34.429Z,11.10
2017-03-23T19:38:32.178Z,11.00
2017-03-23T19:39:29.901Z,11.00
2017-03-23T19:40:27.935Z,11.00
2017-03-23T19:41:26.395Z,11.00
2017-03-23T19:42:24.052Z,11.10
2017-03-23T19:43:21.820Z,11.10
2017-03-23T19:44:19.543Z,11.10
2017-03-23T19:45:17.587Z,11.20
2017-03-23T19:46:15.994Z,11.20
2017-03-23T19:47:13.725Z,11.10
2017-03-23T19:48:12.041Z,11.00
2017-03-23T19:49:11.173Z,11.00
2017-03-23T19:50:10.432Z,11.10
2017-03-23T19:51:08.212Z,11.20
2017-03-23T19:52:06.871Z,11.20
2017-03-23T19:53:05.706Z,11.20
2017-03-23T19:54:04.040Z,11.30
2017-03-23T19:55:02.650Z,11.30
2017-03-23T19:56:00.540Z,11.30
2017-03-23T19:56:59.423Z,11.30
2017-03-23T19:57:57.364Z,11.30
2017-03-23T19:58:55.449Z,11.30
2017-03-23T19:59:54.252Z,11.20
2017-03-23T20:00:53.005Z,11.20
2017-03-23T20:01:50.865Z,11.20
2017-03-23T20:02:49.572Z,11.20
2017-03-23T20:03:47.623Z,11.20
2017-03-23T20:04:46.332Z,11.20
2017-03-23T20:05:44.422Z,11.20
2017-03-23T20:06:42.157Z,11.30
2017-03-23T20:07:39.930Z,11.30
2017-03-23T20:08:38.831Z,11.30
2017-03-23T20:09:37.815Z,11.30
2017-03-23T20:10:36.176Z,11.30
2017-03-23T20:11:34.966Z,11.30
2017-03-23T20:12:32.844Z,11.20
2017-03-23T20:13:30.871Z,11.20
2017-03-23T20:14:28.647Z,11.10
2017-03-23T20:16:31.264Z,11.00
2017-03-23T20:17:29.946Z,11.00
2017-03-23T20:18:28.607Z,10.90
2017-03-23T20:19:26.332Z,10.90
2017-03-23T20:20:24.028Z,10.80
2017-03-23T20:21:23.026Z,10.80
2017-03-23T20:22:20.896Z,10.70
2017-03-23T20:23:18.919Z,10.70
2017-03-23T20:24:17.483Z,10.80
2017-03-23T20:25:15.547Z,10.80
2017-03-23T20:26:13.440Z,10.90
2017-03-23T20:27:11.363Z,10.90
2017-03-23T20:28:09.903Z,11.00
2017-03-23T20:29:07.705Z,11.00
2017-03-23T20:30:07.710Z,11.00
2017-03-23T20:31:05.767Z,11.00
2017-03-23T20:32:04.548Z,10.80
2017-03-23T20:33:03.825Z,10.80
2017-03-23T20:34:01.539Z,10.70
2017-03-23T20:34:59.485Z,10.70
2017-03-23T20:35:57.471Z,10.60
2017-03-23T20:36:55.840Z,10.60
2017-03-23T20:37:53.605Z,10.60
2017-03-23T20:38:51.353Z,10.50
2017-03-23T20:39:49.083Z,10.60
2017-03-23T20:40:48.066Z,10.60
2017-03-23T20:41:45.856Z,10.50
2017-03-23T20:42:43.529Z,10.40
2017-03-23T20:43:41.871Z,10.40
2017-03-23T20:44:39.707Z,10.40
2017-03-23T20:45:37.995Z,10.30
2017-03-23T20:46:36.433Z,10.30
2017-03-23T20:47:34.121Z,10.30
2017-03-23T20:48:31.835Z,10.40
2017-03-23T20:49:29.762Z,10.50
2017-03-23T20:50:28.539Z,10.40
2017-03-23T20:51:26.836Z,10.40
2017-03-23T20:52:24.577Z,10.50
2017-03-23T20:53:22.469Z,10.50
2017-03-23T20:54:20.818Z,10.50
2017-03-23T20:55:19.595Z,10.40
2017-03-23T20:56:19.053Z,10.30
2017-03-23T20:57:17.107Z,10.30
2017-03-23T20:58:14.837Z,10.30
2017-03-23T20:59:12.652Z,10.30
2017-03-23T21:00:11.385Z,10.30
2017-03-23T21:01:10.508Z,10.20
2017-03-23T21:02:08.859Z,10.20
2017-03-23T21:03:07.587Z,10.30
2017-03-23T21:04:05.897Z,10.20
2017-03-23T21:05:03.781Z,10.20
2017-03-23T21:06:02.021Z,10.20
2017-03-23T21:07:00.001Z,10.10
2017-03-23T21:07:58.392Z,10.10
2017-03-23T21:08:56.227Z,10.20
2017-03-23T21:09:55.388Z,10.20
2017-03-23T21:10:53.139Z,10.20
2017-03-23T21:11:52.276Z,10.30
2017-03-23T21:12:50.231Z,10.30
2017-03-23T21:13:47.888Z,10.40
2017-03-23T21:14:45.738Z,10.40
2017-03-23T21:15:43.662Z,10.40
2017-03-23T21:16:41.338Z,10.40
2017-03-23T21:17:39.147Z,10.40
2017-03-23T21:18:36.823Z,10.30
2017-03-23T21:19:34.481Z,10.30
2017-03-23T21:20:32.386Z,10.30
2017-03-23T21:21:30.237Z,10.30
2017-03-23T21:22:27.991Z,10.30
2017-03-23T21:23:25.885Z,10.40
2017-03-23T21:24:23.548Z,10.40
2017-03-23T21:25:21.814Z,10.50
2017-03-23T21:26:19.691Z,10.50
2017-03-23T21:27:18.853Z,10.50
2017-03-23T21:28:16.923Z,10.50
2017-03-23T21:29:14.720Z,10.50
2017-03-23T21:30:13.332Z,10.40
2017-03-23T21:31:11.111Z,10.40
2017-03-23T21:32:09.077Z,10.40
2017-03-23T21:33:06.803Z,10.40
2017-03-23T21:34:04.679Z,10.40
2017-03-23T21:35:03.607Z,10.40
2017-03-23T21:36:01.264Z,10.40
2017-03-23T21:36:59.202Z,10.40
2017-03-23T21:37:56.949Z,10.40
2017-03-23T21:38:55.483Z,10.30
2017-03-23T21:39:53.254Z,10.20
2017-03-23T21:40:51.704Z,10.30
2017-03-23T21:41:49.555Z,10.30
2017-03-23T21:42:47.508Z,10.20
2017-03-23T21:43:45.134Z,10.20
2017-03-23T21:44:42.779Z,10.30
2017-03-23T21:45:40.655Z,10.40
2017-03-23T21:46:38.614Z,10.40
2017-03-23T21:47:36.316Z,10.40
2017-03-23T21:48:33.948Z,10.50
2017-03-23T21:49:32.010Z,10.50
2017-03-23T21:50:31.459Z,10.50
2017-03-23T21:51:30.003Z,10.50
2017-03-23T21:52:28.731Z,10.50
2017-03-23T21:53:26.384Z,10.50
2017-03-23T21:54:24.180Z,10.40
2017-03-23T21:55:23.422Z,10.30
2017-03-23T21:56:21.113Z,10.30
2017-03-23T21:57:18.942Z,10.30
2017-03-23T21:58:16.830Z,10.30
2017-03-23T21:59:14.513Z,10.40
2017-03-23T22:00:12.611Z,10.40
2017-03-23T22:01:10.335Z,10.40
2017-03-23T22:02:07.964Z,10.40
2017-03-23T22:03:06.351Z,10.50
2017-03-23T22:04:04.912Z,10.50
2017-03-23T22:05:03.236Z,10.50
2017-03-23T22:06:00.883Z,10.50
2017-03-23T22:06:58.711Z,10.50
2017-03-23T22:07:56.363Z,10.60
2017-03-23T22:08:54.252Z,10.50
2017-03-23T22:09:51.881Z,10.50
2017-03-23T22:10:51.863Z,10.40
2017-03-23T22:11:49.599Z,10.40
2017-03-23T22:12:47.514Z,10.40
2017-03-23T22:13:46.559Z,10.40
2017-03-23T22:14:44.309Z,10.40
2017-03-23T22:15:42.022Z,10.50
2017-03-23T22:16:40.170Z,10.50
2017-03-23T22:17:38.675Z,10.40
2017-03-23T22:18:36.484Z,10.40
2017-03-23T22:19:34.145Z,10.40
2017-03-23T22:20:31.899Z,10.40
2017-03-23T22:21:29.547Z,10.50
2017-03-23T22:22:27.384Z,10.50
2017-03-23T22:23:26.562Z,10.60
2017-03-23T22:24:24.181Z,10.60
2017-03-23T22:25:22.625Z,10.70
2017-03-23T22:26:20.375Z,10.70
2017-03-23T22:27:17.996Z,10.70
2017-03-23T22:28:15.803Z,10.70
2017-03-23T22:29:13.667Z,10.70
2017-03-23T22:30:15.488Z,10.70
2017-03-23T22:31:13.284Z,10.60
2017-03-23T22:32:11.235Z,10.60
2017-03-23T22:33:09.151Z,10.60
2017-03-23T22:34:06.856Z,10.60
2017-03-23T22:35:04.633Z,10.50
2017-03-23T22:36:02.609Z,10.50
2017-03-23T22:37:00.334Z,10.40
2017-03-23T22:37:57.992Z,10.50
2017-03-23T22:38:55.675Z,10.50
2017-03-23T22:39:53.331Z,10.50
2017-03-23T22:40:51.592Z,10.50
2017-03-23T22:41:49.215Z,10.50
2017-03-23T22:42:47.890Z,10.40
2017-03-23T22:43:46.492Z,10.30
2017-03-23T22:44:44.143Z,10.30
2017-03-23T22:45:42.413Z,10.20
2017-03-23T22:46:40.138Z,10.20
2017-03-23T22:47:37.784Z,10.30
2017-03-23T22:48:35.637Z,10.30
2017-03-23T22:49:33.425Z,10.40
2017-03-23T22:50:31.587Z,10.40
2017-03-23T22:51:29.910Z,10.40
2017-03-23T22:52:27.762Z,10.40
2017-03-23T22:53:25.595Z,10.40
2017-03-23T22:54:23.431Z,10.40
2017-03-23T22:55:22.411Z,10.40
2017-03-23T22:56:20.358Z,10.30
2017-03-23T22:57:18.104Z,10.40
2017-03-23T22:58:15.975Z,10.30
2017-03-23T22:59:13.665Z,10.40
2017-03-23T23:00:12.119Z,10.40
2017-03-23T23:01:09.939Z,10.40
2017-03-23T23:02:08.771Z,10.40
2017-03-23T23:03:06.718Z,10.40
2017-03-23T23:04:04.375Z,10.50
2017-03-23T23:05:02.267Z,10.50
2017-03-23T23:06:00.136Z,10.50
2017-03-23T23:06:57.751Z,10.50
2017-03-23T23:07:55.407Z,10.60
2017-03-23T23:08:53.163Z,10.60
2017-03-23T23:09:50.817Z,10.70
2017-03-23T23:10:48.932Z,10.60
2017-03-23T23:11:47.425Z,10.60
2017-03-23T23:12:45.271Z,10.70
2017-03-23T23:13:43.025Z,10.70
2017-03-23T23:14:40.720Z,10.60
2017-03-23T23:15:38.522Z,10.50
2017-03-23T23:16:37.507Z,10.50
2017-03-23T23:17:35.165Z,10.50
2017-03-23T23:18:32.959Z,10.50
2017-03-23T23:19:30.687Z,10.50
2017-03-23T23:20:28.847Z,10.60
2017-03-23T23:21:26.624Z,10.60
2017-03-23T23:22:24.674Z,10.70
2017-03-23T23:23:22.729Z,10.70
2017-03-23T23:24:20.607Z,10.70
2017-03-23T23:25:18.572Z,10.70
2017-03-23T23:26:16.310Z,10.60
2017-03-23T23:27:14.491Z,10.60
2017-03-23T23:28:12.232Z,10.60
2017-03-23T23:29:10.011Z,10.60
2017-03-23T23:30:08.793Z,10.60
2017-03-23T23:31:06.737Z,10.60
2017-03-23T23:32:04.762Z,10.70
2017-03-23T23:33:02.446Z,10.70
2017-03-23T23:34:00.099Z,10.80
2017-03-23T23:34:57.883Z,10.70
2017-03-23T23:35:55.646Z,10.70
2017-03-23T23:36:53.367Z,10.70
2017-03-23T23:37:51.229Z,10.70
2017-03-23T23:38:48.896Z,10.70
2017-03-23T23:39:47.262Z,10.70
2017-03-23T23:40:45.023Z,10.70
2017-03-23T23:41:42.821Z,10.70
2017-03-23T23:42:41.420Z,10.80
2017-03-23T23:43:39.518Z,10.70
2017-03-23T23:44:37.320Z,10.70
2017-03-23T23:45:35.299Z,10.70
2017-03-23T23:46:33.131Z,10.80
2017-03-23T23:47:30.772Z,10.80
2017-03-23T23:48:28.459Z,10.80
2017-03-23T23:49:26.219Z,10.80
2017-03-23T23:50:24.068Z,10.70
2017-03-23T23:51:22.539Z,10.70
2017-03-23T23:52:20.335Z,10.70
2017-03-23T23:53:18.204Z,10.70
2017-03-23T23:54:15.844Z,10.70
2017-03-23T23:55:13.792Z,10.80
2017-03-23T23:56:11.423Z,10.70
2017-03-23T23:57:09.199Z,10.70
2017-03-23T23:58:07.005Z,10.60
2017-03-23T23:59:04.946Z,10.60
